sensor_id;sensor_type;location;lat;lon;timestamp;P1;durP1;ratioP1;P2;durP2;ratioP2
41663;SDS011;27353;50.906;7.248;2022-09-25T00:01:30;43.97;;;26.98;;
41663;SDS011;27353;50.906;7.248;2022-09-25T00:03:56;42.45;;;26.88;;
41663;SDS011;27353;50.906;7.248;2022-09-25T00:06:24;44.65;;;28.08;;
41663;SDS011;27353;50.906;7.248;2022-09-25T00:08:50;48.00;;;28.23;;
41663;SDS011;27353;50.906;7.248;2022-09-25T00:11:17;45.03;;;27.90;;
41663;SDS011;27353;50.906;7.248;2022-09-25T00:13:43;46.75;;;30.42;;
41663;SDS011;27353;50.906;7.248;2022-09-25T00:16:11;44.33;;;28.48;;
41663;SDS011;27353;50.906;7.248;2022-09-25T00:18:39;38.95;;;27.25;;
41663;SDS011;27353;50.906;7.248;2022-09-25T00:21:23;41.28;;;26.25;;
41663;SDS011;27353;50.906;7.248;2022-09-25T00:23:53;44.10;;;26.85;;
41663;SDS011;27353;50.906;7.248;2022-09-25T00:26:19;48.58;;;29.60;;
41663;SDS011;27353;50.906;7.248;2022-09-25T00:28:44;49.28;;;31.58;;
41663;SDS011;27353;50.906;7.248;2022-09-25T00:31:10;48.80;;;30.52;;
41663;SDS011;27353;50.906;7.248;2022-09-25T00:33:42;49.92;;;29.85;;
41663;SDS011;27353;50.906;7.248;2022-09-25T00:36:08;46.63;;;31.00;;
41663;SDS011;27353;50.906;7.248;2022-09-25T00:38:35;50.28;;;29.98;;
41663;SDS011;27353;50.906;7.248;2022-09-25T00:41:03;48.95;;;30.63;;
41663;SDS011;27353;50.906;7.248;2022-09-25T00:43:39;47.03;;;28.77;;
41663;SDS011;27353;50.906;7.248;2022-09-25T00:46:20;51.75;;;32.08;;
41663;SDS011;27353;50.906;7.248;2022-09-25T00:48:50;44.60;;;27.63;;
41663;SDS011;27353;50.906;7.248;2022-09-25T00:51:22;52.42;;;30.60;;
41663;SDS011;27353;50.906;7.248;2022-09-25T00:53:53;50.50;;;31.67;;
41663;SDS011;27353;50.906;7.248;2022-09-25T00:56:21;49.67;;;33.55;;
41663;SDS011;27353;50.906;7.248;2022-09-25T00:58:48;52.83;;;30.90;;
41663;SDS011;27353;50.906;7.248;2022-09-25T01:01:14;52.70;;;31.60;;
41663;SDS011;27353;50.906;7.248;2022-09-25T01:03:41;54.65;;;34.15;;
41663;SDS011;27353;50.906;7.248;2022-09-25T01:06:09;49.50;;;30.48;;
41663;SDS011;27353;50.906;7.248;2022-09-25T01:08:36;53.58;;;31.33;;
41663;SDS011;27353;50.906;7.248;2022-09-25T01:11:03;49.28;;;32.90;;
41663;SDS011;27353;50.906;7.248;2022-09-25T01:13:29;50.90;;;31.02;;
41663;SDS011;27353;50.906;7.248;2022-09-25T01:18:31;55.85;;;34.15;;
41663;SDS011;27353;50.906;7.248;2022-09-25T01:21:21;51.65;;;31.20;;
41663;SDS011;27353;50.906;7.248;2022-09-25T01:29:39;56.60;;;34.00;;
41663;SDS011;27353;50.906;7.248;2022-09-25T01:32:19;54.15;;;31.02;;
41663;SDS011;27353;50.906;7.248;2022-09-25T01:45:32;49.47;;;31.27;;
41663;SDS011;27353;50.906;7.248;2022-09-25T01:48:06;47.17;;;29.50;;
41663;SDS011;27353;50.906;7.248;2022-09-25T01:50:40;52.50;;;33.22;;
41663;SDS011;27353;50.906;7.248;2022-09-25T01:53:27;55.08;;;36.05;;
41663;SDS011;27353;50.906;7.248;2022-09-25T01:56:06;52.88;;;32.33;;
41663;SDS011;27353;50.906;7.248;2022-09-25T01:58:38;46.10;;;28.88;;
41663;SDS011;27353;50.906;7.248;2022-09-25T02:01:15;54.30;;;31.48;;
41663;SDS011;27353;50.906;7.248;2022-09-25T02:03:57;48.10;;;27.90;;
41663;SDS011;27353;50.906;7.248;2022-09-25T02:06:27;45.10;;;28.60;;
41663;SDS011;27353;50.906;7.248;2022-09-25T02:08:56;43.20;;;28.75;;
41663;SDS011;27353;50.906;7.248;2022-09-25T02:11:28;46.20;;;29.83;;
41663;SDS011;27353;50.906;7.248;2022-09-25T02:14:00;44.42;;;29.98;;
41663;SDS011;27353;50.906;7.248;2022-09-25T02:16:34;51.13;;;32.03;;
41663;SDS011;27353;50.906;7.248;2022-09-25T02:19:07;55.88;;;35.38;;
41663;SDS011;27353;50.906;7.248;2022-09-25T02:24:34;46.58;;;30.67;;
41663;SDS011;27353;50.906;7.248;2022-09-25T02:27:12;52.95;;;29.52;;
41663;SDS011;27353;50.906;7.248;2022-09-25T02:29:39;53.03;;;32.10;;
41663;SDS011;27353;50.906;7.248;2022-09-25T02:32:07;50.33;;;30.00;;
41663;SDS011;27353;50.906;7.248;2022-09-25T02:34:35;51.28;;;30.00;;
41663;SDS011;27353;50.906;7.248;2022-09-25T02:37:00;46.22;;;32.05;;
41663;SDS011;27353;50.906;7.248;2022-09-25T02:39:27;46.58;;;29.63;;
41663;SDS011;27353;50.906;7.248;2022-09-25T02:41:57;50.22;;;30.38;;
41663;SDS011;27353;50.906;7.248;2022-09-25T02:52:31;52.42;;;33.53;;
41663;SDS011;27353;50.906;7.248;2022-09-25T03:03:20;46.33;;;27.77;;
41663;SDS011;27353;50.906;7.248;2022-09-25T03:05:49;45.67;;;27.70;;
41663;SDS011;27353;50.906;7.248;2022-09-25T03:08:18;48.50;;;27.45;;
41663;SDS011;27353;50.906;7.248;2022-09-25T03:11:20;44.40;;;27.52;;
41663;SDS011;27353;50.906;7.248;2022-09-25T03:13:57;46.13;;;28.55;;
41663;SDS011;27353;50.906;7.248;2022-09-25T03:19:16;45.45;;;27.73;;
41663;SDS011;27353;50.906;7.248;2022-09-25T03:21:44;43.75;;;27.05;;
41663;SDS011;27353;50.906;7.248;2022-09-25T03:24:10;45.10;;;29.40;;
41663;SDS011;27353;50.906;7.248;2022-09-25T03:26:35;39.22;;;26.00;;
41663;SDS011;27353;50.906;7.248;2022-09-25T03:29:01;44.03;;;28.20;;
41663;SDS011;27353;50.906;7.248;2022-09-25T03:31:28;41.28;;;29.38;;
41663;SDS011;27353;50.906;7.248;2022-09-25T03:33:54;39.22;;;23.23;;
41663;SDS011;27353;50.906;7.248;2022-09-25T03:36:21;46.55;;;28.65;;
41663;SDS011;27353;50.906;7.248;2022-09-25T03:38:49;43.47;;;28.45;;
41663;SDS011;27353;50.906;7.248;2022-09-25T03:41:20;48.80;;;29.35;;
41663;SDS011;27353;50.906;7.248;2022-09-25T03:43:47;51.08;;;27.90;;
41663;SDS011;27353;50.906;7.248;2022-09-25T03:46:15;46.30;;;27.70;;
41663;SDS011;27353;50.906;7.248;2022-09-25T03:48:45;38.78;;;25.77;;
41663;SDS011;27353;50.906;7.248;2022-09-25T03:51:10;43.95;;;23.83;;
41663;SDS011;27353;50.906;7.248;2022-09-25T03:53:36;34.40;;;22.80;;
41663;SDS011;27353;50.906;7.248;2022-09-25T03:56:04;35.35;;;23.13;;
41663;SDS011;27353;50.906;7.248;2022-09-25T03:58:31;32.53;;;20.48;;
41663;SDS011;27353;50.906;7.248;2022-09-25T04:00:58;35.30;;;21.80;;
41663;SDS011;27353;50.906;7.248;2022-09-25T04:03:25;37.22;;;20.40;;
41663;SDS011;27353;50.906;7.248;2022-09-25T04:05:55;35.45;;;19.60;;
41663;SDS011;27353;50.906;7.248;2022-09-25T04:08:22;28.35;;;18.83;;
41663;SDS011;27353;50.906;7.248;2022-09-25T04:10:50;31.88;;;19.88;;
41663;SDS011;27353;50.906;7.248;2022-09-25T04:13:30;33.35;;;17.80;;
41663;SDS011;27353;50.906;7.248;2022-09-25T04:15:57;35.63;;;20.20;;
41663;SDS011;27353;50.906;7.248;2022-09-25T04:18:25;28.58;;;18.33;;
41663;SDS011;27353;50.906;7.248;2022-09-25T04:21:02;24.35;;;17.42;;
41663;SDS011;27353;50.906;7.248;2022-09-25T04:23:29;25.70;;;14.98;;
41663;SDS011;27353;50.906;7.248;2022-09-25T04:25:56;24.42;;;16.95;;
41663;SDS011;27353;50.906;7.248;2022-09-25T04:28:21;26.75;;;18.65;;
41663;SDS011;27353;50.906;7.248;2022-09-25T04:30:47;24.13;;;17.42;;
41663;SDS011;27353;50.906;7.248;2022-09-25T04:33:14;32.65;;;18.63;;
41663;SDS011;27353;50.906;7.248;2022-09-25T04:35:58;26.13;;;17.60;;
41663;SDS011;27353;50.906;7.248;2022-09-25T04:38:24;28.70;;;15.93;;
41663;SDS011;27353;50.906;7.248;2022-09-25T04:40:50;30.40;;;16.45;;
41663;SDS011;27353;50.906;7.248;2022-09-25T04:43:15;24.50;;;16.95;;
41663;SDS011;27353;50.906;7.248;2022-09-25T04:45:41;26.65;;;17.95;;
41663;SDS011;27353;50.906;7.248;2022-09-25T04:48:06;25.23;;;15.10;;
41663;SDS011;27353;50.906;7.248;2022-09-25T04:50:32;26.02;;;16.13;;
41663;SDS011;27353;50.906;7.248;2022-09-25T04:52:58;23.48;;;14.27;;
41663;SDS011;27353;50.906;7.248;2022-09-25T04:55:24;25.95;;;14.73;;
41663;SDS011;27353;50.906;7.248;2022-09-25T04:57:51;27.45;;;15.75;;
41663;SDS011;27353;50.906;7.248;2022-09-25T05:00:18;26.90;;;14.43;;
41663;SDS011;27353;50.906;7.248;2022-09-25T05:02:45;19.80;;;13.77;;
41663;SDS011;27353;50.906;7.248;2022-09-25T05:05:11;25.98;;;13.35;;
41663;SDS011;27353;50.906;7.248;2022-09-25T05:07:36;20.52;;;12.63;;
41663;SDS011;27353;50.906;7.248;2022-09-25T05:10:03;19.63;;;12.05;;
41663;SDS011;27353;50.906;7.248;2022-09-25T05:12:32;14.75;;;10.65;;
41663;SDS011;27353;50.906;7.248;2022-09-25T05:14:58;20.13;;;12.77;;
41663;SDS011;27353;50.906;7.248;2022-09-25T05:17:24;28.33;;;14.88;;
41663;SDS011;27353;50.906;7.248;2022-09-25T05:19:50;20.10;;;10.57;;
41663;SDS011;27353;50.906;7.248;2022-09-25T05:22:15;18.33;;;9.77;;
41663;SDS011;27353;50.906;7.248;2022-09-25T05:24:41;10.35;;;8.32;;
41663;SDS011;27353;50.906;7.248;2022-09-25T05:27:06;19.73;;;10.90;;
41663;SDS011;27353;50.906;7.248;2022-09-25T05:29:32;23.98;;;11.50;;
41663;SDS011;27353;50.906;7.248;2022-09-25T05:31:58;15.45;;;9.10;;
41663;SDS011;27353;50.906;7.248;2022-09-25T05:34:24;19.83;;;9.63;;
41663;SDS011;27353;50.906;7.248;2022-09-25T05:36:50;26.08;;;10.00;;
41663;SDS011;27353;50.906;7.248;2022-09-25T05:39:16;22.38;;;9.57;;
41663;SDS011;27353;50.906;7.248;2022-09-25T05:41:42;16.75;;;9.57;;
41663;SDS011;27353;50.906;7.248;2022-09-25T05:44:07;15.18;;;9.77;;
41663;SDS011;27353;50.906;7.248;2022-09-25T05:46:36;18.10;;;8.93;;
41663;SDS011;27353;50.906;7.248;2022-09-25T05:49:03;23.23;;;11.38;;
41663;SDS011;27353;50.906;7.248;2022-09-25T05:51:29;20.92;;;9.88;;
41663;SDS011;27353;50.906;7.248;2022-09-25T05:53:55;14.30;;;9.23;;
41663;SDS011;27353;50.906;7.248;2022-09-25T05:56:21;20.48;;;9.07;;
41663;SDS011;27353;50.906;7.248;2022-09-25T05:58:49;23.70;;;9.95;;
41663;SDS011;27353;50.906;7.248;2022-09-25T06:01:16;19.80;;;10.10;;
41663;SDS011;27353;50.906;7.248;2022-09-25T06:03:43;19.80;;;9.25;;
41663;SDS011;27353;50.906;7.248;2022-09-25T06:06:08;21.20;;;10.25;;
41663;SDS011;27353;50.906;7.248;2022-09-25T06:08:34;21.38;;;9.65;;
41663;SDS011;27353;50.906;7.248;2022-09-25T06:10:59;19.90;;;8.85;;
41663;SDS011;27353;50.906;7.248;2022-09-25T06:13:26;21.50;;;11.52;;
41663;SDS011;27353;50.906;7.248;2022-09-25T06:15:54;21.98;;;12.85;;
41663;SDS011;27353;50.906;7.248;2022-09-25T06:18:21;29.45;;;15.57;;
41663;SDS011;27353;50.906;7.248;2022-09-25T06:20:48;36.20;;;20.95;;
41663;SDS011;27353;50.906;7.248;2022-09-25T06:23:15;82.15;;;43.28;;
41663;SDS011;27353;50.906;7.248;2022-09-25T06:25:41;92.30;;;41.45;;
41663;SDS011;27353;50.906;7.248;2022-09-25T06:28:06;88.88;;;42.97;;
41663;SDS011;27353;50.906;7.248;2022-09-25T06:30:33;38.88;;;22.08;;
41663;SDS011;27353;50.906;7.248;2022-09-25T06:33:04;26.70;;;13.60;;
41663;SDS011;27353;50.906;7.248;2022-09-25T06:35:33;13.52;;;8.05;;
41663;SDS011;27353;50.906;7.248;2022-09-25T06:38:00;22.63;;;8.10;;
41663;SDS011;27353;50.906;7.248;2022-09-25T06:40:28;13.70;;;8.05;;
41663;SDS011;27353;50.906;7.248;2022-09-25T06:43:01;13.75;;;7.72;;
41663;SDS011;27353;50.906;7.248;2022-09-25T06:45:29;18.40;;;9.07;;
41663;SDS011;27353;50.906;7.248;2022-09-25T06:48:08;14.68;;;9.48;;
41663;SDS011;27353;50.906;7.248;2022-09-25T06:53:06;20.15;;;10.27;;
41663;SDS011;27353;50.906;7.248;2022-09-25T06:55:33;19.17;;;9.40;;
41663;SDS011;27353;50.906;7.248;2022-09-25T06:57:59;22.17;;;9.98;;
41663;SDS011;27353;50.906;7.248;2022-09-25T07:00:25;18.98;;;11.00;;
41663;SDS011;27353;50.906;7.248;2022-09-25T07:02:51;20.00;;;11.75;;
41663;SDS011;27353;50.906;7.248;2022-09-25T07:05:35;16.63;;;11.23;;
41663;SDS011;27353;50.906;7.248;2022-09-25T07:08:01;18.27;;;11.02;;
41663;SDS011;27353;50.906;7.248;2022-09-25T07:10:26;25.55;;;11.10;;
41663;SDS011;27353;50.906;7.248;2022-09-25T07:12:52;19.40;;;12.05;;
41663;SDS011;27353;50.906;7.248;2022-09-25T07:15:18;18.02;;;9.73;;
41663;SDS011;27353;50.906;7.248;2022-09-25T07:17:44;14.35;;;8.32;;
41663;SDS011;27353;50.906;7.248;2022-09-25T07:20:10;16.48;;;9.98;;
41663;SDS011;27353;50.906;7.248;2022-09-25T07:22:42;20.13;;;10.25;;
41663;SDS011;27353;50.906;7.248;2022-09-25T07:25:08;13.93;;;9.07;;
41663;SDS011;27353;50.906;7.248;2022-09-25T07:27:35;10.80;;;8.02;;
41663;SDS011;27353;50.906;7.248;2022-09-25T07:30:00;13.75;;;9.45;;
41663;SDS011;27353;50.906;7.248;2022-09-25T07:32:27;19.50;;;10.10;;
41663;SDS011;27353;50.906;7.248;2022-09-25T07:34:53;15.88;;;9.77;;
41663;SDS011;27353;50.906;7.248;2022-09-25T07:37:18;16.55;;;10.13;;
41663;SDS011;27353;50.906;7.248;2022-09-25T07:39:44;23.50;;;8.77;;
41663;SDS011;27353;50.906;7.248;2022-09-25T07:42:10;15.40;;;9.00;;
41663;SDS011;27353;50.906;7.248;2022-09-25T07:44:35;15.38;;;9.02;;
41663;SDS011;27353;50.906;7.248;2022-09-25T07:47:01;15.52;;;8.20;;
41663;SDS011;27353;50.906;7.248;2022-09-25T07:49:28;12.85;;;7.72;;
41663;SDS011;27353;50.906;7.248;2022-09-25T07:51:54;17.88;;;8.52;;
41663;SDS011;27353;50.906;7.248;2022-09-25T07:54:19;17.95;;;7.30;;
41663;SDS011;27353;50.906;7.248;2022-09-25T07:56:45;12.43;;;7.30;;
41663;SDS011;27353;50.906;7.248;2022-09-25T07:59:11;14.80;;;7.85;;
41663;SDS011;27353;50.906;7.248;2022-09-25T08:01:36;14.32;;;6.68;;
41663;SDS011;27353;50.906;7.248;2022-09-25T08:04:02;15.35;;;6.65;;
41663;SDS011;27353;50.906;7.248;2022-09-25T08:06:28;11.02;;;5.90;;
41663;SDS011;27353;50.906;7.248;2022-09-25T08:08:53;11.07;;;6.10;;
41663;SDS011;27353;50.906;7.248;2022-09-25T08:11:19;14.27;;;6.88;;
41663;SDS011;27353;50.906;7.248;2022-09-25T08:13:47;10.98;;;6.53;;
41663;SDS011;27353;50.906;7.248;2022-09-25T08:16:14;12.40;;;6.80;;
41663;SDS011;27353;50.906;7.248;2022-09-25T08:18:43;7.40;;;4.63;;
41663;SDS011;27353;50.906;7.248;2022-09-25T08:21:10;13.35;;;7.05;;
41663;SDS011;27353;50.906;7.248;2022-09-25T08:23:38;11.90;;;7.20;;
41663;SDS011;27353;50.906;7.248;2022-09-25T08:26:04;7.72;;;5.00;;
41663;SDS011;27353;50.906;7.248;2022-09-25T08:28:30;13.57;;;6.45;;
41663;SDS011;27353;50.906;7.248;2022-09-25T08:30:56;13.07;;;6.97;;
41663;SDS011;27353;50.906;7.248;2022-09-25T08:33:23;10.85;;;6.82;;
41663;SDS011;27353;50.906;7.248;2022-09-25T08:35:56;17.33;;;8.48;;
41663;SDS011;27353;50.906;7.248;2022-09-25T08:38:24;13.82;;;7.45;;
41663;SDS011;27353;50.906;7.248;2022-09-25T08:41:04;16.30;;;7.70;;
41663;SDS011;27353;50.906;7.248;2022-09-25T08:43:41;15.70;;;8.60;;
41663;SDS011;27353;50.906;7.248;2022-09-25T08:46:20;13.85;;;8.50;;
41663;SDS011;27353;50.906;7.248;2022-09-25T08:49:08;15.23;;;7.70;;
41663;SDS011;27353;50.906;7.248;2022-09-25T08:51:41;15.80;;;8.75;;
41663;SDS011;27353;50.906;7.248;2022-09-25T08:54:11;15.85;;;8.18;;
41663;SDS011;27353;50.906;7.248;2022-09-25T08:56:44;13.02;;;7.18;;
41663;SDS011;27353;50.906;7.248;2022-09-25T08:59:38;17.17;;;7.70;;
41663;SDS011;27353;50.906;7.248;2022-09-25T09:02:18;14.32;;;6.97;;
41663;SDS011;27353;50.906;7.248;2022-09-25T09:04:47;17.15;;;8.60;;
41663;SDS011;27353;50.906;7.248;2022-09-25T09:09:59;8.63;;;6.18;;
41663;SDS011;27353;50.906;7.248;2022-09-25T09:12:33;12.10;;;6.18;;
41663;SDS011;27353;50.906;7.248;2022-09-25T09:17:56;12.68;;;5.65;;
41663;SDS011;27353;50.906;7.248;2022-09-25T09:20:28;7.32;;;4.43;;
41663;SDS011;27353;50.906;7.248;2022-09-25T09:23:04;7.47;;;3.47;;
41663;SDS011;27353;50.906;7.248;2022-09-25T09:25:34;8.00;;;3.50;;
41663;SDS011;27353;50.906;7.248;2022-09-25T09:39:43;6.25;;;2.67;;
41663;SDS011;27353;50.906;7.248;2022-09-25T09:50:38;4.40;;;1.58;;
41663;SDS011;27353;50.906;7.248;2022-09-25T09:53:23;6.03;;;1.98;;
41663;SDS011;27353;50.906;7.248;2022-09-25T09:55:53;5.63;;;1.73;;
41663;SDS011;27353;50.906;7.248;2022-09-25T09:58:30;4.82;;;1.40;;
41663;SDS011;27353;50.906;7.248;2022-09-25T10:01:06;3.25;;;1.15;;
41663;SDS011;27353;50.906;7.248;2022-09-25T10:03:35;8.30;;;2.08;;
41663;SDS011;27353;50.906;7.248;2022-09-25T10:06:07;5.78;;;2.08;;
41663;SDS011;27353;50.906;7.248;2022-09-25T10:08:35;4.60;;;1.50;;
41663;SDS011;27353;50.906;7.248;2022-09-25T10:11:03;4.72;;;1.42;;
41663;SDS011;27353;50.906;7.248;2022-09-25T10:13:36;7.40;;;2.05;;
41663;SDS011;27353;50.906;7.248;2022-09-25T10:21:28;4.40;;;0.77;;
41663;SDS011;27353;50.906;7.248;2022-09-25T10:23:56;7.80;;;2.45;;
41663;SDS011;27353;50.906;7.248;2022-09-25T10:26:24;4.10;;;1.20;;
41663;SDS011;27353;50.906;7.248;2022-09-25T10:29:00;6.15;;;1.60;;
41663;SDS011;27353;50.906;7.248;2022-09-25T10:31:37;10.65;;;1.70;;
41663;SDS011;27353;50.906;7.248;2022-09-25T10:34:05;8.80;;;1.55;;
41663;SDS011;27353;50.906;7.248;2022-09-25T10:36:45;6.30;;;1.40;;
41663;SDS011;27353;50.906;7.248;2022-09-25T10:42:00;4.07;;;1.38;;
41663;SDS011;27353;50.906;7.248;2022-09-25T10:50:17;6.88;;;1.95;;
41663;SDS011;27353;50.906;7.248;2022-09-25T10:52:46;6.57;;;1.52;;
41663;SDS011;27353;50.906;7.248;2022-09-25T11:03:15;4.80;;;1.17;;
41663;SDS011;27353;50.906;7.248;2022-09-25T11:05:54;7.00;;;1.58;;
41663;SDS011;27353;50.906;7.248;2022-09-25T11:08:24;4.05;;;1.27;;
41663;SDS011;27353;50.906;7.248;2022-09-25T11:10:54;7.43;;;1.42;;
41663;SDS011;27353;50.906;7.248;2022-09-25T11:13:25;2.58;;;1.35;;
41663;SDS011;27353;50.906;7.248;2022-09-25T11:16:00;6.30;;;2.75;;
41663;SDS011;27353;50.906;7.248;2022-09-25T11:18:35;5.05;;;1.27;;
41663;SDS011;27353;50.906;7.248;2022-09-25T11:24:14;5.43;;;1.30;;
41663;SDS011;27353;50.906;7.248;2022-09-25T11:27:11;2.38;;;1.20;;
41663;SDS011;27353;50.906;7.248;2022-09-25T11:30:02;3.28;;;1.35;;
41663;SDS011;27353;50.906;7.248;2022-09-25T11:32:45;4.10;;;1.20;;
41663;SDS011;27353;50.906;7.248;2022-09-25T11:41:43;3.08;;;1.33;;
41663;SDS011;27353;50.906;7.248;2022-09-25T11:49:24;4.63;;;1.08;;
41663;SDS011;27353;50.906;7.248;2022-09-25T11:57:36;2.03;;;1.00;;
41663;SDS011;27353;50.906;7.248;2022-09-25T12:05:37;5.80;;;1.45;;
41663;SDS011;27353;50.906;7.248;2022-09-25T12:14:48;5.82;;;1.13;;
41663;SDS011;27353;50.906;7.248;2022-09-25T12:17:17;5.30;;;1.00;;
41663;SDS011;27353;50.906;7.248;2022-09-25T12:19:58;2.58;;;0.90;;
41663;SDS011;27353;50.906;7.248;2022-09-25T12:28:05;3.08;;;0.90;;
41663;SDS011;27353;50.906;7.248;2022-09-25T12:33:42;4.90;;;0.77;;
41663;SDS011;27353;50.906;7.248;2022-09-25T12:36:17;4.03;;;0.75;;
41663;SDS011;27353;50.906;7.248;2022-09-25T12:41:31;5.35;;;1.15;;
41663;SDS011;27353;50.906;7.248;2022-09-25T12:44:20;1.77;;;0.60;;
41663;SDS011;27353;50.906;7.248;2022-09-25T12:46:56;4.53;;;1.33;;
41663;SDS011;27353;50.906;7.248;2022-09-25T12:49:31;2.05;;;0.82;;
41663;SDS011;27353;50.906;7.248;2022-09-25T12:52:06;1.13;;;0.50;;
41663;SDS011;27353;50.906;7.248;2022-09-25T12:55:27;3.85;;;0.77;;
41663;SDS011;27353;50.906;7.248;2022-09-25T12:57:56;2.80;;;0.70;;
41663;SDS011;27353;50.906;7.248;2022-09-25T13:00:28;3.53;;;1.60;;
41663;SDS011;27353;50.906;7.248;2022-09-25T13:03:10;2.58;;;0.63;;
41663;SDS011;27353;50.906;7.248;2022-09-25T13:13:54;3.75;;;0.75;;
41663;SDS011;27353;50.906;7.248;2022-09-25T13:16:23;0.98;;;0.60;;
41663;SDS011;27353;50.906;7.248;2022-09-25T13:21:36;1.67;;;0.90;;
41663;SDS011;27353;50.906;7.248;2022-09-25T13:24:06;2.03;;;0.73;;
41663;SDS011;27353;50.906;7.248;2022-09-25T13:26:46;4.93;;;0.88;;
41663;SDS011;27353;50.906;7.248;2022-09-25T13:29:26;0.88;;;0.50;;
41663;SDS011;27353;50.906;7.248;2022-09-25T13:32:01;4.97;;;0.82;;
41663;SDS011;27353;50.906;7.248;2022-09-25T13:34:42;2.53;;;1.00;;
41663;SDS011;27353;50.906;7.248;2022-09-25T13:37:09;3.00;;;0.77;;
41663;SDS011;27353;50.906;7.248;2022-09-25T13:42:25;2.53;;;0.85;;
41663;SDS011;27353;50.906;7.248;2022-09-25T13:48:10;5.25;;;1.40;;
41663;SDS011;27353;50.906;7.248;2022-09-25T13:56:27;1.63;;;0.93;;
41663;SDS011;27353;50.906;7.248;2022-09-25T14:01:36;3.97;;;1.75;;
41663;SDS011;27353;50.906;7.248;2022-09-25T14:06:38;1.38;;;0.52;;
41663;SDS011;27353;50.906;7.248;2022-09-25T14:09:13;3.33;;;1.17;;
41663;SDS011;27353;50.906;7.248;2022-09-25T14:11:43;3.92;;;0.73;;
41663;SDS011;27353;50.906;7.248;2022-09-25T14:14:43;1.42;;;0.80;;
41663;SDS011;27353;50.906;7.248;2022-09-25T14:17:17;1.25;;;0.88;;
41663;SDS011;27353;50.906;7.248;2022-09-25T14:19:47;4.50;;;0.68;;
41663;SDS011;27353;50.906;7.248;2022-09-25T14:22:35;4.50;;;0.75;;
41663;SDS011;27353;50.906;7.248;2022-09-25T14:25:24;2.63;;;1.20;;
41663;SDS011;27353;50.906;7.248;2022-09-25T14:27:52;2.35;;;1.15;;
41663;SDS011;27353;50.906;7.248;2022-09-25T14:30:19;3.78;;;1.40;;
41663;SDS011;27353;50.906;7.248;2022-09-25T14:32:49;2.65;;;1.05;;
41663;SDS011;27353;50.906;7.248;2022-09-25T14:35:33;1.70;;;0.85;;
41663;SDS011;27353;50.906;7.248;2022-09-25T14:41:24;3.63;;;1.00;;
41663;SDS011;27353;50.906;7.248;2022-09-25T14:44:30;2.33;;;1.40;;
41663;SDS011;27353;50.906;7.248;2022-09-25T14:47:10;1.55;;;0.95;;
41663;SDS011;27353;50.906;7.248;2022-09-25T14:49:39;6.03;;;1.25;;
41663;SDS011;27353;50.906;7.248;2022-09-25T14:52:09;4.40;;;0.80;;
41663;SDS011;27353;50.906;7.248;2022-09-25T14:54:40;5.35;;;1.35;;
41663;SDS011;27353;50.906;7.248;2022-09-25T14:57:10;3.25;;;1.48;;
41663;SDS011;27353;50.906;7.248;2022-09-25T14:59:44;1.23;;;0.68;;
41663;SDS011;27353;50.906;7.248;2022-09-25T15:02:20;1.65;;;0.70;;
41663;SDS011;27353;50.906;7.248;2022-09-25T15:04:50;5.07;;;1.13;;
41663;SDS011;27353;50.906;7.248;2022-09-25T15:07:41;3.67;;;0.77;;
41663;SDS011;27353;50.906;7.248;2022-09-25T15:12:52;1.83;;;0.70;;
41663;SDS011;27353;50.906;7.248;2022-09-25T15:15:19;3.65;;;0.90;;
41663;SDS011;27353;50.906;7.248;2022-09-25T15:17:55;3.67;;;1.17;;
41663;SDS011;27353;50.906;7.248;2022-09-25T15:20:27;4.60;;;0.88;;
41663;SDS011;27353;50.906;7.248;2022-09-25T15:25:29;3.97;;;1.00;;
41663;SDS011;27353;50.906;7.248;2022-09-25T15:28:17;2.25;;;0.90;;
41663;SDS011;27353;50.906;7.248;2022-09-25T15:30:44;3.55;;;1.05;;
41663;SDS011;27353;50.906;7.248;2022-09-25T15:33:25;2.03;;;0.85;;
41663;SDS011;27353;50.906;7.248;2022-09-25T15:38:40;5.63;;;0.70;;
41663;SDS011;27353;50.906;7.248;2022-09-25T15:41:07;1.05;;;0.50;;
41663;SDS011;27353;50.906;7.248;2022-09-25T15:43:36;3.97;;;1.58;;
41663;SDS011;27353;50.906;7.248;2022-09-25T15:48:31;3.22;;;0.63;;
41663;SDS011;27353;50.906;7.248;2022-09-25T15:51:01;3.25;;;1.00;;
41663;SDS011;27353;50.906;7.248;2022-09-25T15:53:31;2.80;;;1.23;;
41663;SDS011;27353;50.906;7.248;2022-09-25T15:58:52;1.95;;;0.70;;
41663;SDS011;27353;50.906;7.248;2022-09-25T16:01:27;4.20;;;1.00;;
41663;SDS011;27353;50.906;7.248;2022-09-25T16:04:14;5.50;;;1.25;;
41663;SDS011;27353;50.906;7.248;2022-09-25T16:09:48;2.22;;;1.05;;
41663;SDS011;27353;50.906;7.248;2022-09-25T16:12:26;2.40;;;0.85;;
41663;SDS011;27353;50.906;7.248;2022-09-25T16:14:55;4.18;;;0.90;;
41663;SDS011;27353;50.906;7.248;2022-09-25T16:19:57;1.88;;;0.82;;
41663;SDS011;27353;50.906;7.248;2022-09-25T16:22:34;3.20;;;1.10;;
41663;SDS011;27353;50.906;7.248;2022-09-25T16:25:16;2.42;;;1.33;;
41663;SDS011;27353;50.906;7.248;2022-09-25T16:27:46;1.67;;;0.83;;
41663;SDS011;27353;50.906;7.248;2022-09-25T16:30:16;1.58;;;0.95;;
41663;SDS011;27353;50.906;7.248;2022-09-25T16:32:44;2.70;;;0.90;;
41663;SDS011;27353;50.906;7.248;2022-09-25T16:35:20;1.77;;;0.90;;
41663;SDS011;27353;50.906;7.248;2022-09-25T16:37:59;3.45;;;0.95;;
41663;SDS011;27353;50.906;7.248;2022-09-25T16:40:27;2.72;;;1.33;;
41663;SDS011;27353;50.906;7.248;2022-09-25T16:42:57;3.97;;;1.52;;
41663;SDS011;27353;50.906;7.248;2022-09-25T16:45:25;4.93;;;1.30;;
41663;SDS011;27353;50.906;7.248;2022-09-25T16:47:58;1.67;;;1.02;;
41663;SDS011;27353;50.906;7.248;2022-09-25T16:50:26;1.23;;;0.73;;
41663;SDS011;27353;50.906;7.248;2022-09-25T16:55:24;3.97;;;1.92;;
41663;SDS011;27353;50.906;7.248;2022-09-25T16:57:53;1.70;;;0.75;;
41663;SDS011;27353;50.906;7.248;2022-09-25T17:00:26;2.53;;;1.30;;
41663;SDS011;27353;50.906;7.248;2022-09-25T17:02:53;3.55;;;1.27;;
41663;SDS011;27353;50.906;7.248;2022-09-25T17:05:20;2.53;;;1.38;;
41663;SDS011;27353;50.906;7.248;2022-09-25T17:07:51;3.35;;;1.40;;
41663;SDS011;27353;50.906;7.248;2022-09-25T17:10:19;7.22;;;2.17;;
41663;SDS011;27353;50.906;7.248;2022-09-25T17:12:47;2.05;;;1.73;;
41663;SDS011;27353;50.906;7.248;2022-09-25T17:15:19;2.67;;;1.58;;
41663;SDS011;27353;50.906;7.248;2022-09-25T17:17:48;3.15;;;1.50;;
41663;SDS011;27353;50.906;7.248;2022-09-25T17:20:19;6.18;;;2.13;;
41663;SDS011;27353;50.906;7.248;2022-09-25T17:22:47;2.00;;;1.33;;
41663;SDS011;27353;50.906;7.248;2022-09-25T17:25:17;10.75;;;3.45;;
41663;SDS011;27353;50.906;7.248;2022-09-25T17:28:01;9.35;;;2.80;;
41663;SDS011;27353;50.906;7.248;2022-09-25T17:30:27;8.65;;;1.88;;
41663;SDS011;27353;50.906;7.248;2022-09-25T17:32:53;3.53;;;1.45;;
41663;SDS011;27353;50.906;7.248;2022-09-25T17:35:33;8.10;;;2.53;;
41663;SDS011;27353;50.906;7.248;2022-09-25T17:37:59;5.32;;;3.00;;
41663;SDS011;27353;50.906;7.248;2022-09-25T17:40:26;4.45;;;1.92;;
41663;SDS011;27353;50.906;7.248;2022-09-25T17:42:53;6.05;;;2.53;;
41663;SDS011;27353;50.906;7.248;2022-09-25T17:45:52;2.97;;;1.70;;
41663;SDS011;27353;50.906;7.248;2022-09-25T17:48:24;5.05;;;1.55;;
41663;SDS011;27353;50.906;7.248;2022-09-25T17:51:02;12.05;;;3.15;;
41663;SDS011;27353;50.906;7.248;2022-09-25T17:53:35;5.47;;;2.28;;
41663;SDS011;27353;50.906;7.248;2022-09-25T17:56:01;6.75;;;2.78;;
41663;SDS011;27353;50.906;7.248;2022-09-25T17:58:27;5.18;;;1.70;;
41663;SDS011;27353;50.906;7.248;2022-09-25T18:00:55;5.25;;;2.05;;
41663;SDS011;27353;50.906;7.248;2022-09-25T18:03:23;4.05;;;1.42;;
41663;SDS011;27353;50.906;7.248;2022-09-25T18:05:49;2.55;;;1.33;;